createdAt,value
2023-07-03T00:00:23.930Z,15.96
2023-07-03T00:02:53.937Z,15.97
2023-07-03T00:05:24.691Z,15.86
2023-07-03T00:07:53.365Z,15.84
2023-07-03T00:10:22.836Z,15.95
2023-07-03T00:12:52.232Z,15.82
2023-07-03T00:15:20.261Z,15.81
2023-07-03T00:17:48.206Z,15.83
2023-07-03T00:20:16.713Z,15.75
2023-07-03T00:22:45.497Z,15.53
2023-07-03T00:25:13.431Z,15.75
2023-07-03T00:27:41.314Z,15.78
2023-07-03T00:30:12.127Z,15.77
2023-07-03T00:32:39.960Z,15.78
2023-07-03T00:35:08.637Z,15.77
2023-07-03T00:37:36.937Z,15.77
2023-07-03T00:40:08.185Z,15.73
2023-07-03T00:42:37.406Z,15.63
2023-07-03T00:45:10.908Z,15.79
2023-07-03T00:47:39.460Z,15.82
2023-07-03T00:50:08.501Z,15.81
2023-07-03T00:52:36.713Z,15.87
2023-07-03T00:55:04.784Z,15.86
2023-07-03T00:57:32.621Z,15.88
2023-07-03T01:00:01.561Z,15.80
2023-07-03T01:02:37.898Z,15.76
2023-07-03T01:05:12.419Z,15.79
2023-07-03T01:07:41.158Z,15.80
2023-07-03T01:10:12.930Z,15.77
2023-07-03T01:12:43.941Z,15.78
2023-07-03T01:15:16.952Z,15.52
2023-07-03T01:17:48.662Z,15.75
2023-07-03T01:20:19.569Z,15.76
2023-07-03T01:22:55.484Z,15.67
2023-07-03T01:25:27.652Z,15.56
2023-07-03T01:27:59.661Z,15.48
2023-07-03T01:30:29.938Z,15.50
2023-07-03T01:32:59.344Z,15.52
2023-07-03T01:35:28.539Z,15.52
2023-07-03T01:37:59.303Z,15.44
2023-07-03T01:40:29.912Z,15.54
2023-07-03T01:42:59.376Z,15.55
2023-07-03T01:45:28.039Z,15.62
2023-07-03T01:47:56.364Z,15.58
2023-07-03T01:50:28.560Z,15.52
2023-07-03T01:52:59.572Z,15.59
2023-07-03T01:55:40.586Z,15.55
2023-07-03T01:58:15.381Z,15.52
2023-07-03T02:00:52.944Z,15.53
2023-07-03T02:03:27.111Z,15.50
2023-07-03T02:05:57.973Z,15.46
2023-07-03T02:08:27.761Z,15.47
2023-07-03T02:10:57.542Z,15.39
2023-07-03T02:13:25.570Z,15.37
2023-07-03T02:15:55.671Z,15.48
2023-07-03T02:18:24.484Z,15.41
2023-07-03T02:20:52.849Z,15.42
2023-07-03T02:23:20.976Z,15.32
2023-07-03T02:25:49.121Z,15.31
2023-07-03T02:28:18.714Z,15.29
2023-07-03T02:30:47.198Z,15.30
2023-07-03T02:33:15.165Z,15.26
2023-07-03T02:35:43.267Z,15.25
2023-07-03T02:38:12.318Z,15.28
2023-07-03T02:40:43.035Z,15.23
2023-07-03T02:43:11.388Z,15.23
2023-07-03T02:45:44.233Z,15.20
2023-07-03T02:48:15.007Z,15.13
2023-07-03T02:50:46.715Z,15.06
2023-07-03T02:53:14.522Z,15.03
2023-07-03T02:55:42.674Z,15.06
2023-07-03T02:58:10.767Z,15.13
2023-07-03T03:00:40.210Z,15.14
2023-07-03T03:03:09.485Z,15.20
2023-07-03T03:05:37.915Z,15.19
2023-07-03T03:08:06.288Z,15.16
2023-07-03T03:10:34.318Z,15.10
2023-07-03T03:13:02.324Z,14.87
2023-07-03T03:15:33.028Z,15.05
2023-07-03T03:18:00.889Z,15.01
2023-07-03T03:20:30.177Z,14.92
2023-07-03T03:22:58.044Z,14.99
2023-07-03T03:25:26.010Z,15.01
2023-07-03T03:27:54.187Z,15.00
2023-07-03T03:30:22.495Z,14.96
2023-07-03T03:32:50.490Z,14.94
2023-07-03T03:35:18.696Z,14.75
2023-07-03T03:37:48.062Z,14.74
2023-07-03T03:40:15.979Z,14.73
2023-07-03T03:42:43.880Z,14.70
2023-07-03T03:45:13.090Z,14.52
2023-07-03T03:47:41.549Z,14.76
2023-07-03T03:50:10.620Z,14.63
2023-07-03T03:52:42.343Z,14.74
2023-07-03T03:55:12.463Z,14.73
2023-07-03T03:57:40.337Z,14.68
2023-07-03T04:00:16.619Z,14.01
2023-07-03T04:02:45.451Z,14.60
2023-07-03T04:05:13.578Z,14.52
2023-07-03T04:07:41.716Z,14.59
2023-07-03T04:10:10.140Z,14.58
2023-07-03T04:12:39.366Z,14.56
2023-07-03T04:15:09.244Z,14.61
2023-07-03T04:17:37.193Z,14.72
2023-07-03T04:20:09.084Z,14.90
2023-07-03T04:22:37.081Z,14.94
2023-07-03T04:25:05.368Z,15.01
2023-07-03T04:27:33.463Z,15.04
2023-07-03T04:30:02.661Z,14.85
2023-07-03T04:32:30.819Z,14.77
2023-07-03T04:34:58.845Z,14.69
2023-07-03T04:37:27.569Z,14.63
2023-07-03T04:39:55.636Z,14.57
2023-07-03T04:42:23.441Z,14.51
2023-07-03T04:44:51.691Z,14.48
2023-07-03T04:47:21.274Z,14.50
2023-07-03T04:49:50.099Z,14.48
2023-07-03T04:52:18.052Z,14.46
2023-07-03T04:54:45.935Z,14.49
2023-07-03T04:57:13.922Z,14.47
2023-07-03T04:59:43.315Z,14.48
2023-07-03T05:02:13.180Z,14.35
2023-07-03T05:04:43.798Z,14.58
2023-07-03T05:07:11.898Z,14.55
2023-07-03T05:09:39.897Z,14.58
2023-07-03T05:12:08.570Z,14.57
2023-07-03T05:14:36.898Z,14.62
2023-07-03T05:17:05.023Z,14.70
2023-07-03T05:19:32.788Z,14.68
2023-07-03T05:22:02.051Z,14.54
2023-07-03T05:24:29.981Z,14.66
2023-07-03T05:26:57.956Z,14.64
2023-07-03T05:29:25.908Z,14.70
2023-07-03T05:31:53.849Z,14.71
2023-07-03T05:34:21.745Z,14.83
2023-07-03T05:36:49.794Z,14.83
2023-07-03T05:39:19.073Z,14.88
2023-07-03T05:41:47.044Z,15.03
2023-07-03T05:44:14.972Z,14.99
2023-07-03T05:46:42.815Z,15.10
2023-07-03T05:49:12.521Z,15.22
2023-07-03T05:51:40.374Z,15.26
2023-07-03T05:54:08.212Z,15.25
2023-07-03T05:56:37.445Z,15.32
2023-07-03T05:59:05.414Z,15.28
2023-07-03T06:01:33.490Z,15.24
2023-07-03T06:04:01.581Z,15.23
2023-07-03T06:06:29.475Z,15.21
2023-07-03T06:08:57.339Z,15.19
2023-07-03T06:11:25.193Z,15.01
2023-07-03T06:13:54.478Z,15.09
2023-07-03T06:16:23.254Z,15.04
2023-07-03T06:18:51.111Z,15.03
2023-07-03T06:21:18.977Z,15.00
2023-07-03T06:23:47.208Z,15.03
2023-07-03T06:26:15.023Z,15.14
2023-07-03T06:28:42.912Z,15.25
2023-07-03T06:31:12.909Z,15.23
2023-07-03T06:33:40.948Z,15.14
2023-07-03T06:36:08.884Z,15.36
2023-07-03T06:38:36.611Z,15.44
2023-07-03T06:41:04.583Z,15.54
2023-07-03T06:43:32.594Z,15.72
2023-07-03T06:46:00.900Z,15.89
2023-07-03T06:48:30.196Z,15.97
2023-07-03T06:51:06.652Z,15.95
2023-07-03T06:53:34.641Z,16.04
2023-07-03T06:56:03.730Z,16.09
2023-07-03T06:58:32.963Z,16.02
2023-07-03T07:01:07.476Z,15.81
2023-07-03T07:03:36.866Z,15.80
2023-07-03T07:06:11.048Z,15.66
2023-07-03T07:08:39.556Z,15.47
2023-07-03T07:11:10.495Z,15.40
2023-07-03T07:13:42.572Z,15.32
2023-07-03T07:16:14.657Z,15.26
2023-07-03T07:18:44.342Z,15.30
2023-07-03T07:21:12.287Z,15.45
2023-07-03T07:23:40.164Z,15.29
2023-07-03T07:26:08.248Z,15.69
2023-07-03T07:28:36.196Z,16.17
2023-07-03T07:31:04.253Z,16.60
2023-07-03T07:33:32.149Z,17.10
2023-07-03T07:36:01.358Z,17.27
2023-07-03T07:38:29.210Z,17.44
2023-07-03T07:41:03.170Z,17.42
2023-07-03T07:43:31.442Z,17.79
2023-07-03T07:45:59.861Z,18.45
2023-07-03T07:48:29.431Z,18.48
2023-07-03T07:50:59.220Z,18.17
2023-07-03T07:53:30.833Z,18.19
2023-07-03T07:55:59.588Z,18.40
2023-07-03T07:58:27.905Z,18.45
2023-07-03T08:00:57.596Z,18.82
2023-07-03T08:03:26.610Z,18.60
2023-07-03T08:05:58.177Z,18.75
2023-07-03T08:08:27.273Z,18.85
2023-07-03T08:10:57.803Z,18.82
2023-07-03T08:13:26.970Z,18.35
2023-07-03T08:15:55.506Z,18.30
2023-07-03T08:18:24.647Z,18.39
2023-07-03T08:20:53.134Z,18.96
2023-07-03T08:23:21.362Z,19.50
2023-07-03T08:25:50.981Z,19.92
2023-07-03T08:28:21.797Z,19.37
2023-07-03T08:30:50.202Z,18.88
2023-07-03T08:33:18.698Z,18.69
2023-07-03T08:38:18.557Z,18.05
2023-07-03T08:40:46.740Z,17.97
2023-07-03T08:43:21.126Z,17.56
2023-07-03T08:45:51.974Z,17.06
2023-07-03T08:48:23.019Z,17.43
2023-07-03T08:50:54.712Z,17.18
2023-07-03T08:53:26.040Z,17.24
2023-07-03T08:55:59.651Z,17.18
2023-07-03T08:58:28.943Z,17.17
2023-07-03T09:01:05.606Z,16.99
2023-07-03T09:03:45.709Z,16.66
2023-07-03T09:06:20.878Z,16.47
2023-07-03T09:09:02.089Z,16.14
2023-07-03T09:11:35.184Z,16.29
2023-07-03T09:14:05.070Z,16.61
2023-07-03T09:16:33.169Z,17.07
2023-07-03T09:19:10.662Z,17.48
2023-07-03T09:21:40.668Z,17.57
2023-07-03T09:24:19.880Z,17.68
2023-07-03T09:26:53.037Z,17.62
2023-07-03T09:29:22.869Z,17.78
2023-07-03T09:31:51.007Z,17.98
2023-07-03T09:34:18.946Z,18.14
2023-07-03T09:36:46.840Z,18.17
2023-07-03T09:39:19.303Z,18.35
2023-07-03T09:41:48.013Z,18.53
2023-07-03T09:44:20.254Z,18.66
2023-07-03T09:46:50.458Z,18.64
2023-07-03T09:49:26.128Z,18.86
2023-07-03T09:51:56.338Z,19.17
2023-07-03T09:54:28.892Z,19.07
2023-07-03T09:56:57.775Z,19.08
2023-07-03T09:59:26.480Z,19.30
2023-07-03T10:07:09.017Z,19.63
2023-07-03T10:12:22.833Z,20.38
2023-07-03T10:14:56.842Z,20.02
2023-07-03T10:17:30.648Z,19.93
2023-07-03T10:20:04.762Z,20.01
2023-07-03T10:22:33.787Z,19.99
2023-07-03T10:25:05.438Z,20.20
2023-07-03T10:27:36.550Z,19.95
2023-07-03T10:30:12.223Z,20.05
2023-07-03T10:32:45.495Z,19.70
2023-07-03T10:35:22.530Z,19.69
2023-07-03T10:37:58.756Z,19.42
2023-07-03T10:40:33.274Z,18.92
2023-07-03T10:43:04.176Z,18.79
2023-07-03T10:45:34.964Z,18.58
2023-07-03T10:48:09.574Z,18.51
2023-07-03T10:50:44.718Z,18.42
2023-07-03T10:53:25.515Z,18.37
2023-07-03T10:56:03.081Z,18.24
2023-07-03T10:58:42.084Z,18.40
2023-07-03T11:01:17.303Z,18.68
2023-07-03T11:04:11.267Z,18.73
2023-07-03T11:06:53.726Z,19.47
2023-07-03T11:09:27.885Z,19.69
2023-07-03T11:12:04.820Z,19.67
2023-07-03T11:14:43.497Z,19.77
2023-07-03T11:17:19.553Z,19.78
2023-07-03T11:20:01.424Z,19.94
2023-07-03T11:25:21.421Z,19.40
2023-07-03T11:27:58.670Z,18.92
2023-07-03T11:30:27.211Z,19.09
2023-07-03T11:32:58.390Z,18.96
2023-07-03T11:40:38.685Z,18.96
2023-07-03T11:46:19.645Z,18.51
2023-07-03T11:48:51.379Z,18.32
2023-07-03T11:51:33.357Z,18.27
2023-07-03T11:54:01.981Z,18.42
2023-07-03T11:56:47.015Z,18.37
2023-07-03T11:59:26.451Z,18.52
2023-07-03T12:02:04.447Z,18.46
2023-07-03T12:04:52.077Z,18.40
2023-07-03T12:07:52.227Z,18.37
2023-07-03T12:10:48.208Z,18.32
2023-07-03T12:13:37.207Z,18.25
2023-07-03T12:16:09.490Z,18.22
2023-07-03T12:18:38.258Z,18.21
2023-07-03T12:21:07.270Z,18.09
2023-07-03T12:23:38.497Z,18.12
2023-07-03T12:26:08.896Z,18.01
2023-07-03T12:28:37.386Z,17.97
2023-07-03T12:31:20.608Z,17.93
2023-07-03T12:33:56.281Z,17.93
2023-07-03T12:36:26.086Z,17.92
2023-07-03T12:38:56.732Z,18.11
2023-07-03T12:41:28.366Z,18.35
2023-07-03T12:44:07.559Z,18.65
2023-07-03T12:46:38.452Z,19.09
2023-07-03T12:49:10.039Z,19.35
2023-07-03T12:51:43.927Z,19.53
2023-07-03T12:54:14.552Z,19.73
2023-07-03T12:56:45.142Z,20.19
2023-07-03T12:59:17.409Z,20.22
2023-07-03T13:01:49.591Z,19.96
2023-07-03T13:04:27.127Z,20.04
2023-07-03T13:06:55.393Z,20.11
2023-07-03T13:09:26.161Z,20.02
2023-07-03T13:11:54.087Z,20.20
2023-07-03T13:14:24.117Z,20.58
2023-07-03T13:16:55.076Z,20.27
2023-07-03T13:19:27.303Z,20.07
2023-07-03T13:21:55.619Z,19.90
2023-07-03T13:24:27.624Z,19.60
2023-07-03T13:26:57.277Z,19.21
2023-07-03T13:29:35.014Z,19.09
2023-07-03T13:32:17.074Z,19.12
2023-07-03T13:34:57.603Z,18.99
2023-07-03T13:37:27.933Z,18.94
2023-07-03T13:40:01.792Z,18.90
2023-07-03T13:42:31.162Z,18.77
2023-07-03T13:44:59.919Z,18.72
2023-07-03T13:47:29.666Z,18.59
2023-07-03T13:49:58.026Z,18.72
2023-07-03T13:52:26.141Z,19.17
2023-07-03T13:54:54.141Z,19.59
2023-07-03T13:57:23.410Z,19.83
2023-07-03T13:59:51.301Z,20.07
2023-07-03T14:02:19.254Z,20.05
2023-07-03T14:04:47.321Z,20.26
2023-07-03T14:07:15.323Z,20.11
2023-07-03T14:09:43.452Z,20.19
2023-07-03T14:12:11.371Z,20.03
2023-07-03T14:14:40.873Z,20.07
2023-07-03T14:17:08.961Z,19.94
2023-07-03T14:19:37.069Z,19.42
2023-07-03T14:22:06.323Z,19.98
2023-07-03T14:24:35.250Z,20.47
2023-07-03T14:27:03.864Z,20.60
2023-07-03T14:29:31.734Z,20.58
2023-07-03T14:32:00.955Z,20.59
2023-07-03T14:34:28.814Z,20.55
2023-07-03T14:36:56.692Z,20.30
2023-07-03T14:39:24.593Z,20.24
2023-07-03T14:41:53.836Z,20.23
2023-07-03T14:44:21.702Z,20.14
2023-07-03T14:46:49.508Z,20.16
2023-07-03T14:49:18.668Z,20.03
2023-07-03T14:51:46.636Z,19.86
2023-07-03T14:54:14.530Z,19.77
2023-07-03T14:56:42.822Z,19.74
2023-07-03T14:59:11.150Z,19.61
2023-07-03T15:01:39.556Z,19.47
2023-07-03T15:04:08.624Z,19.39
2023-07-03T15:06:40.764Z,19.35
2023-07-03T15:09:09.527Z,19.31
2023-07-03T15:11:39.631Z,19.27
2023-07-03T15:14:09.336Z,19.22
2023-07-03T15:16:38.292Z,19.10
2023-07-03T15:19:08.060Z,19.13
2023-07-03T15:21:40.645Z,19.15
2023-07-03T15:24:10.591Z,19.18
2023-07-03T15:26:40.099Z,19.12
2023-07-03T15:29:08.472Z,19.16
2023-07-03T15:31:37.238Z,19.19
2023-07-03T15:34:07.134Z,19.15
2023-07-03T15:36:35.400Z,19.25
2023-07-03T15:39:05.864Z,19.21
2023-07-03T15:41:34.737Z,19.25
2023-07-03T15:44:03.648Z,19.22
2023-07-03T15:46:32.495Z,19.17
2023-07-03T15:49:00.940Z,19.15
2023-07-03T15:51:29.572Z,19.15
2023-07-03T15:53:58.007Z,19.21
2023-07-03T15:56:27.840Z,19.26
2023-07-03T15:58:58.368Z,19.28
2023-07-03T16:01:28.316Z,19.32
2023-07-03T16:03:58.885Z,19.52
2023-07-03T16:06:29.029Z,19.50
2023-07-03T16:08:58.813Z,19.42
2023-07-03T16:11:29.035Z,19.33
2023-07-03T16:13:59.391Z,19.32
2023-07-03T16:16:28.653Z,19.34
2023-07-03T16:18:59.777Z,19.32
2023-07-03T16:21:31.341Z,19.25
2023-07-03T16:24:00.311Z,19.13
2023-07-03T16:26:29.907Z,19.15
2023-07-03T16:28:57.924Z,19.06
2023-07-03T16:31:28.700Z,19.02
2023-07-03T16:33:59.013Z,19.03
2023-07-03T16:36:29.219Z,19.09
2023-07-03T16:38:58.884Z,19.11
2023-07-03T16:41:29.851Z,19.09
2023-07-03T16:43:59.210Z,18.93
2023-07-03T16:46:29.046Z,18.97
2023-07-03T16:48:58.497Z,19.08
2023-07-03T16:51:28.176Z,19.08
2023-07-03T16:53:57.590Z,19.14
2023-07-03T16:56:28.854Z,18.96
2023-07-03T16:58:59.273Z,18.90
2023-07-03T17:01:30.221Z,18.93
2023-07-03T17:03:58.863Z,18.94
2023-07-03T17:06:30.350Z,18.92
2023-07-03T17:08:58.535Z,18.78
2023-07-03T17:11:27.016Z,18.88
2023-07-03T17:13:56.254Z,18.91
2023-07-03T17:16:25.642Z,18.81
2023-07-03T17:18:53.648Z,18.76
2023-07-03T17:21:21.517Z,18.79
2023-07-03T17:23:57.422Z,18.70
2023-07-03T17:26:25.702Z,18.68
2023-07-03T17:28:53.584Z,18.62
2023-07-03T17:31:24.955Z,18.58
2023-07-03T17:33:55.551Z,18.61
2023-07-03T17:36:24.762Z,18.55
2023-07-03T17:38:53.162Z,18.55
2023-07-03T17:41:21.269Z,18.57
2023-07-03T17:43:49.270Z,18.64
2023-07-03T17:46:17.947Z,18.57
2023-07-03T17:48:46.120Z,18.63
2023-07-03T17:51:15.493Z,18.59
2023-07-03T17:53:45.274Z,18.36
2023-07-03T17:56:13.632Z,18.50
2023-07-03T17:58:43.547Z,18.55
2023-07-03T18:01:11.895Z,18.42
2023-07-03T18:03:39.882Z,18.62
2023-07-03T18:06:09.276Z,18.62
2023-07-03T18:08:38.719Z,18.59
2023-07-03T18:11:06.778Z,18.55
2023-07-03T18:13:35.020Z,18.50
2023-07-03T18:16:03.482Z,18.56
2023-07-03T18:18:32.055Z,18.54
2023-07-03T18:21:00.335Z,18.42
2023-07-03T18:23:28.674Z,18.39
2023-07-03T18:25:58.347Z,18.37
2023-07-03T18:28:26.666Z,18.42
2023-07-03T18:30:59.091Z,18.37
2023-07-03T18:33:28.695Z,18.40
2023-07-03T18:35:56.755Z,18.32
2023-07-03T18:38:25.204Z,18.29
2023-07-03T18:40:54.475Z,18.31
2023-07-03T18:43:24.646Z,18.28
2023-07-03T18:45:53.264Z,18.23
2023-07-03T18:48:21.730Z,18.28
2023-07-03T18:50:50.455Z,18.24
2023-07-03T18:53:18.972Z,18.16
2023-07-03T18:55:48.557Z,18.21
2023-07-03T18:58:17.393Z,18.19
2023-07-03T19:00:47.652Z,18.19
2023-07-03T19:03:16.474Z,18.24
2023-07-03T19:05:51.933Z,18.24
2023-07-03T19:08:20.486Z,18.19
2023-07-03T19:10:48.741Z,18.22
2023-07-03T19:13:17.183Z,18.13
2023-07-03T19:15:47.077Z,18.13
2023-07-03T19:18:15.474Z,18.08
2023-07-03T19:20:43.714Z,18.02
2023-07-03T19:23:12.105Z,17.94
2023-07-03T19:25:40.474Z,17.86
2023-07-03T19:28:09.100Z,17.93
2023-07-03T19:30:37.443Z,17.92
2023-07-03T19:33:07.183Z,17.84
2023-07-03T19:35:35.877Z,17.78
2023-07-03T19:38:04.508Z,17.79
2023-07-03T19:40:37.939Z,17.73
2023-07-03T19:43:06.382Z,17.69
2023-07-03T19:45:35.447Z,17.74
2023-07-03T19:48:04.865Z,17.75
2023-07-03T19:50:34.744Z,17.68
2023-07-03T19:53:03.182Z,17.56
2023-07-03T19:55:31.371Z,17.52
2023-07-03T19:57:59.653Z,17.44
2023-07-03T20:00:27.986Z,17.46
2023-07-03T20:02:56.841Z,17.46
2023-07-03T20:05:25.493Z,17.43
2023-07-03T20:07:54.807Z,17.56
2023-07-03T20:10:22.929Z,17.63
2023-07-03T20:12:51.954Z,17.56
2023-07-03T20:15:22.510Z,17.58
2023-07-03T20:17:51.412Z,17.41
2023-07-03T20:20:19.799Z,17.49
2023-07-03T20:22:47.885Z,17.51
2023-07-03T20:25:18.709Z,17.38
2023-07-03T20:27:46.766Z,17.37
2023-07-03T20:30:15.273Z,17.45
2023-07-03T20:32:44.912Z,17.45
2023-07-03T20:35:13.113Z,17.48
2023-07-03T20:37:41.870Z,17.41
2023-07-03T20:40:10.578Z,17.39
2023-07-03T20:42:39.767Z,17.31
2023-07-03T20:45:08.848Z,17.30
2023-07-03T20:47:36.768Z,17.25
2023-07-03T20:50:05.415Z,17.34
2023-07-03T20:52:36.450Z,17.36
2023-07-03T20:55:23.786Z,17.25
2023-07-03T20:57:53.232Z,17.25
2023-07-03T21:00:21.675Z,17.27
2023-07-03T21:02:50.790Z,17.23
2023-07-03T21:05:20.371Z,17.22
2023-07-03T21:07:48.235Z,17.31
2023-07-03T21:10:16.590Z,17.22
2023-07-03T21:12:44.627Z,17.19
2023-07-03T21:15:14.089Z,17.20
2023-07-03T21:17:41.947Z,17.29
2023-07-03T21:20:11.207Z,17.27
2023-07-03T21:22:39.073Z,17.28
2023-07-03T21:25:07.780Z,17.24
2023-07-03T21:27:35.666Z,17.20
2023-07-03T21:30:03.536Z,17.10
2023-07-03T21:32:32.940Z,17.12
2023-07-03T21:35:01.005Z,17.00
2023-07-03T21:37:30.989Z,16.99
2023-07-03T21:39:59.015Z,16.88
2023-07-03T21:42:26.861Z,16.90
2023-07-03T21:44:54.721Z,16.91
2023-07-03T21:47:22.722Z,16.94
2023-07-03T21:49:52.072Z,16.85
2023-07-03T21:52:20.188Z,16.83
2023-07-03T21:54:48.896Z,16.68
2023-07-03T21:57:19.278Z,16.70
2023-07-03T21:59:49.460Z,16.70
2023-07-03T22:02:17.411Z,16.65
2023-07-03T22:04:45.585Z,16.67
2023-07-03T22:07:14.924Z,16.62
2023-07-03T22:09:42.971Z,16.59
2023-07-03T22:12:11.783Z,16.54
2023-07-03T22:14:39.818Z,16.56
2023-07-03T22:17:07.708Z,16.67
2023-07-03T22:19:37.492Z,16.71
2023-07-03T22:22:07.487Z,16.78
2023-07-03T22:24:37.761Z,16.78
2023-07-03T22:27:06.375Z,16.80
2023-07-03T22:29:38.701Z,16.78
2023-07-03T22:32:08.200Z,16.76
2023-07-03T22:34:36.331Z,16.75
2023-07-03T22:37:04.687Z,16.81
2023-07-03T22:39:32.692Z,16.78
2023-07-03T22:42:02.083Z,16.81
2023-07-03T22:44:30.065Z,16.84
2023-07-03T22:46:58.382Z,16.78
2023-07-03T22:49:26.549Z,16.91
2023-07-03T22:51:55.031Z,16.87
2023-07-03T22:54:23.491Z,16.85
2023-07-03T22:56:51.431Z,16.86
2023-07-03T22:59:20.673Z,16.84
2023-07-03T23:01:49.313Z,16.79
2023-07-03T23:04:36.426Z,16.90
2023-07-03T23:07:04.774Z,16.87
2023-07-03T23:09:33.320Z,16.95
2023-07-03T23:12:01.353Z,16.99
2023-07-03T23:14:30.611Z,17.00
2023-07-03T23:17:00.715Z,17.03
2023-07-03T23:19:29.646Z,17.03
2023-07-03T23:21:57.956Z,16.93
2023-07-03T23:24:27.157Z,16.95
2023-07-03T23:26:55.089Z,16.96
2023-07-03T23:29:23.259Z,16.90
2023-07-03T23:31:53.148Z,16.96
2023-07-03T23:34:21.493Z,16.85
2023-07-03T23:36:51.832Z,16.89
2023-07-03T23:39:19.834Z,16.95
2023-07-03T23:41:47.863Z,16.96
2023-07-03T23:44:15.764Z,16.98
2023-07-03T23:46:43.773Z,16.92
2023-07-03T23:49:13.030Z,16.94
2023-07-03T23:51:41.011Z,16.85
2023-07-03T23:54:10.742Z,16.81
2023-07-03T23:56:39.355Z,16.94
2023-07-03T23:59:08.534Z,16.94
